sensor_id;sensor_type;location;lat;lon;timestamp;P1;durP1;ratioP1;P2;durP2;ratioP2
8046;SDS011;74083;42.516;23.358;2023-12-07T00:01:21;2.53;;;2.33;;
8046;SDS011;74083;42.516;23.358;2023-12-07T00:04:06;2.90;;;2.60;;
8046;SDS011;74083;42.516;23.358;2023-12-07T00:06:53;2.63;;;2.43;;
8046;SDS011;74083;42.516;23.358;2023-12-07T00:09:39;2.50;;;2.30;;
8046;SDS011;74083;42.516;23.358;2023-12-07T00:12:24;2.97;;;2.70;;
8046;SDS011;74083;42.516;23.358;2023-12-07T00:15:10;2.70;;;2.50;;
8046;SDS011;74083;42.516;23.358;2023-12-07T00:17:55;2.80;;;2.60;;
8046;SDS011;74083;42.516;23.358;2023-12-07T00:20:41;2.70;;;2.50;;
8046;SDS011;74083;42.516;23.358;2023-12-07T00:23:28;2.60;;;2.40;;
8046;SDS011;74083;42.516;23.358;2023-12-07T00:26:13;2.80;;;2.60;;
8046;SDS011;74083;42.516;23.358;2023-12-07T00:28:59;2.87;;;2.67;;
8046;SDS011;74083;42.516;23.358;2023-12-07T00:31:45;2.80;;;2.60;;
8046;SDS011;74083;42.516;23.358;2023-12-07T00:34:30;2.57;;;2.37;;
8046;SDS011;74083;42.516;23.358;2023-12-07T00:37:15;2.50;;;2.30;;
8046;SDS011;74083;42.516;23.358;2023-12-07T00:40:03;2.57;;;2.37;;
8046;SDS011;74083;42.516;23.358;2023-12-07T00:42:49;2.87;;;2.67;;
8046;SDS011;74083;42.516;23.358;2023-12-07T00:45:35;3.10;;;2.80;;
8046;SDS011;74083;42.516;23.358;2023-12-07T00:48:20;2.50;;;2.30;;
8046;SDS011;74083;42.516;23.358;2023-12-07T00:51:06;2.63;;;2.43;;
8046;SDS011;74083;42.516;23.358;2023-12-07T00:53:52;2.60;;;2.40;;
8046;SDS011;74083;42.516;23.358;2023-12-07T00:56:38;2.90;;;2.70;;
8046;SDS011;74083;42.516;23.358;2023-12-07T00:59:24;2.57;;;2.37;;
8046;SDS011;74083;42.516;23.358;2023-12-07T01:02:09;2.70;;;2.50;;
8046;SDS011;74083;42.516;23.358;2023-12-07T01:04:55;2.67;;;2.47;;
8046;SDS011;74083;42.516;23.358;2023-12-07T01:07:40;2.80;;;2.60;;
8046;SDS011;74083;42.516;23.358;2023-12-07T01:10:26;3.00;;;2.80;;
8046;SDS011;74083;42.516;23.358;2023-12-07T01:13:13;2.70;;;2.50;;
8046;SDS011;74083;42.516;23.358;2023-12-07T01:15:59;3.40;;;3.10;;
8046;SDS011;74083;42.516;23.358;2023-12-07T01:18:45;2.73;;;2.53;;
8046;SDS011;74083;42.516;23.358;2023-12-07T01:21:30;2.87;;;2.57;;
8046;SDS011;74083;42.516;23.358;2023-12-07T01:24:16;3.00;;;2.63;;
8046;SDS011;74083;42.516;23.358;2023-12-07T01:27:01;3.47;;;2.77;;
8046;SDS011;74083;42.516;23.358;2023-12-07T01:29:49;3.00;;;2.80;;
8046;SDS011;74083;42.516;23.358;2023-12-07T01:32:34;3.80;;;3.30;;
8046;SDS011;74083;42.516;23.358;2023-12-07T01:35:20;3.17;;;2.93;;
8046;SDS011;74083;42.516;23.358;2023-12-07T01:38:06;3.40;;;3.10;;
8046;SDS011;74083;42.516;23.358;2023-12-07T01:40:51;3.10;;;2.90;;
8046;SDS011;74083;42.516;23.358;2023-12-07T01:43:37;3.10;;;2.90;;
8046;SDS011;74083;42.516;23.358;2023-12-07T01:46:23;3.00;;;2.80;;
8046;SDS011;74083;42.516;23.358;2023-12-07T01:49:10;2.93;;;2.73;;
8046;SDS011;74083;42.516;23.358;2023-12-07T01:51:56;2.90;;;2.70;;
8046;SDS011;74083;42.516;23.358;2023-12-07T01:54:42;2.93;;;2.70;;
8046;SDS011;74083;42.516;23.358;2023-12-07T01:57:28;3.87;;;2.97;;
8046;SDS011;74083;42.516;23.358;2023-12-07T02:00:14;3.43;;;2.77;;
8046;SDS011;74083;42.516;23.358;2023-12-07T02:03:04;3.43;;;2.83;;
8046;SDS011;74083;42.516;23.358;2023-12-07T02:05:50;3.10;;;2.80;;
8046;SDS011;74083;42.516;23.358;2023-12-07T02:08:36;3.27;;;3.00;;
8046;SDS011;74083;42.516;23.358;2023-12-07T02:11:25;3.00;;;2.70;;
8046;SDS011;74083;42.516;23.358;2023-12-07T02:14:11;4.13;;;2.60;;
8046;SDS011;74083;42.516;23.358;2023-12-07T02:16:57;2.97;;;2.50;;
8046;SDS011;74083;42.516;23.358;2023-12-07T02:19:55;3.30;;;3.00;;
8046;SDS011;74083;42.516;23.358;2023-12-07T02:22:48;5.10;;;2.67;;
8046;SDS011;74083;42.516;23.358;2023-12-07T02:25:44;2.70;;;2.50;;
8046;SDS011;74083;42.516;23.358;2023-12-07T02:29:07;3.00;;;2.80;;
8046;SDS011;74083;42.516;23.358;2023-12-07T02:31:53;2.70;;;2.50;;
8046;SDS011;74083;42.516;23.358;2023-12-07T02:34:39;2.70;;;2.50;;
8046;SDS011;74083;42.516;23.358;2023-12-07T02:37:24;2.43;;;2.23;;
8046;SDS011;74083;42.516;23.358;2023-12-07T02:40:14;2.53;;;2.33;;
8046;SDS011;74083;42.516;23.358;2023-12-07T02:43:02;2.70;;;2.50;;
8046;SDS011;74083;42.516;23.358;2023-12-07T02:45:50;2.70;;;2.50;;
8046;SDS011;74083;42.516;23.358;2023-12-07T02:48:36;2.80;;;2.60;;
8046;SDS011;74083;42.516;23.358;2023-12-07T02:51:22;2.60;;;2.40;;
8046;SDS011;74083;42.516;23.358;2023-12-07T02:54:07;2.53;;;2.33;;
8046;SDS011;74083;42.516;23.358;2023-12-07T02:56:53;2.77;;;2.50;;
8046;SDS011;74083;42.516;23.358;2023-12-07T02:59:38;2.60;;;2.40;;
8046;SDS011;74083;42.516;23.358;2023-12-07T03:02:25;2.77;;;2.57;;
8046;SDS011;74083;42.516;23.358;2023-12-07T03:05:11;3.03;;;2.77;;
8046;SDS011;74083;42.516;23.358;2023-12-07T03:07:56;2.47;;;2.27;;
8046;SDS011;74083;42.516;23.358;2023-12-07T03:10:42;2.50;;;2.30;;
8046;SDS011;74083;42.516;23.358;2023-12-07T03:13:27;2.50;;;2.30;;
8046;SDS011;74083;42.516;23.358;2023-12-07T03:16:13;2.43;;;2.23;;
8046;SDS011;74083;42.516;23.358;2023-12-07T03:19:01;2.20;;;2.10;;
8046;SDS011;74083;42.516;23.358;2023-12-07T03:21:47;2.23;;;2.13;;
8046;SDS011;74083;42.516;23.358;2023-12-07T03:24:34;2.47;;;2.30;;
8046;SDS011;74083;42.516;23.358;2023-12-07T03:27:20;2.53;;;2.33;;
8046;SDS011;74083;42.516;23.358;2023-12-07T03:30:06;2.60;;;2.40;;
8046;SDS011;74083;42.516;23.358;2023-12-07T03:32:52;2.60;;;2.40;;
8046;SDS011;74083;42.516;23.358;2023-12-07T03:35:39;2.70;;;2.50;;
8046;SDS011;74083;42.516;23.358;2023-12-07T03:38:25;2.20;;;2.10;;
8046;SDS011;74083;42.516;23.358;2023-12-07T03:41:11;2.30;;;2.20;;
8046;SDS011;74083;42.516;23.358;2023-12-07T03:43:57;2.30;;;2.10;;
8046;SDS011;74083;42.516;23.358;2023-12-07T03:46:42;2.60;;;2.40;;
8046;SDS011;74083;42.516;23.358;2023-12-07T03:49:28;2.20;;;2.10;;
8046;SDS011;74083;42.516;23.358;2023-12-07T03:52:15;2.50;;;2.30;;
8046;SDS011;74083;42.516;23.358;2023-12-07T03:55:01;2.40;;;2.20;;
8046;SDS011;74083;42.516;23.358;2023-12-07T03:57:47;2.50;;;2.30;;
8046;SDS011;74083;42.516;23.358;2023-12-07T04:00:32;2.27;;;2.07;;
8046;SDS011;74083;42.516;23.358;2023-12-07T04:03:18;2.20;;;2.10;;
8046;SDS011;74083;42.516;23.358;2023-12-07T04:06:04;2.00;;;1.90;;
8046;SDS011;74083;42.516;23.358;2023-12-07T04:08:52;2.57;;;2.37;;
8046;SDS011;74083;42.516;23.358;2023-12-07T04:11:37;2.87;;;2.20;;
8046;SDS011;74083;42.516;23.358;2023-12-07T04:14:23;2.50;;;2.30;;
8046;SDS011;74083;42.516;23.358;2023-12-07T04:17:08;2.20;;;2.10;;
8046;SDS011;74083;42.516;23.358;2023-12-07T04:19:54;2.60;;;2.40;;
8046;SDS011;74083;42.516;23.358;2023-12-07T04:22:39;2.43;;;2.23;;
8046;SDS011;74083;42.516;23.358;2023-12-07T04:25:26;2.10;;;2.00;;
8046;SDS011;74083;42.516;23.358;2023-12-07T04:28:12;2.13;;;2.03;;
8046;SDS011;74083;42.516;23.358;2023-12-07T04:30:58;2.70;;;2.50;;
8046;SDS011;74083;42.516;23.358;2023-12-07T04:33:43;2.40;;;2.30;;
8046;SDS011;74083;42.516;23.358;2023-12-07T04:36:29;1.90;;;1.80;;
8046;SDS011;74083;42.516;23.358;2023-12-07T04:39:14;2.43;;;2.23;;
8046;SDS011;74083;42.516;23.358;2023-12-07T04:42:02;2.60;;;2.40;;
8046;SDS011;74083;42.516;23.358;2023-12-07T04:44:48;2.70;;;2.30;;
8046;SDS011;74083;42.516;23.358;2023-12-07T04:47:33;2.60;;;2.40;;
8046;SDS011;74083;42.516;23.358;2023-12-07T04:50:18;2.57;;;2.37;;
8046;SDS011;74083;42.516;23.358;2023-12-07T04:53:04;2.70;;;2.50;;
8046;SDS011;74083;42.516;23.358;2023-12-07T04:55:50;2.90;;;2.60;;
8046;SDS011;74083;42.516;23.358;2023-12-07T04:58:37;2.90;;;2.70;;
8046;SDS011;74083;42.516;23.358;2023-12-07T05:01:23;2.60;;;2.40;;
8046;SDS011;74083;42.516;23.358;2023-12-07T05:04:08;2.93;;;2.60;;
8046;SDS011;74083;42.516;23.358;2023-12-07T05:06:53;2.80;;;2.60;;
8046;SDS011;74083;42.516;23.358;2023-12-07T05:09:39;3.13;;;2.83;;
8046;SDS011;74083;42.516;23.358;2023-12-07T05:12:25;2.97;;;2.77;;
8046;SDS011;74083;42.516;23.358;2023-12-07T05:15:12;3.33;;;3.03;;
8046;SDS011;74083;42.516;23.358;2023-12-07T05:17:57;3.20;;;2.90;;
8046;SDS011;74083;42.516;23.358;2023-12-07T05:20:43;3.80;;;3.17;;
8046;SDS011;74083;42.516;23.358;2023-12-07T05:23:28;5.10;;;3.60;;
8046;SDS011;74083;42.516;23.358;2023-12-07T05:26:14;5.33;;;3.80;;
8046;SDS011;74083;42.516;23.358;2023-12-07T05:28:59;4.37;;;3.97;;
8046;SDS011;74083;42.516;23.358;2023-12-07T05:31:47;4.20;;;3.80;;
8046;SDS011;74083;42.516;23.358;2023-12-07T05:34:33;4.70;;;4.20;;
8046;SDS011;74083;42.516;23.358;2023-12-07T05:37:20;5.43;;;4.93;;
8046;SDS011;74083;42.516;23.358;2023-12-07T05:40:05;5.00;;;4.50;;
8046;SDS011;74083;42.516;23.358;2023-12-07T05:42:52;6.30;;;4.57;;
8046;SDS011;74083;42.516;23.358;2023-12-07T05:45:37;5.53;;;5.03;;
8046;SDS011;74083;42.516;23.358;2023-12-07T05:48:24;7.00;;;5.87;;
8046;SDS011;74083;42.516;23.358;2023-12-07T05:51:11;6.57;;;5.63;;
8046;SDS011;74083;42.516;23.358;2023-12-07T05:53:57;7.57;;;5.57;;
8046;SDS011;74083;42.516;23.358;2023-12-07T05:56:43;7.73;;;5.67;;
8046;SDS011;74083;42.516;23.358;2023-12-07T05:59:30;8.67;;;6.20;;
8046;SDS011;74083;42.516;23.358;2023-12-07T06:02:15;7.00;;;6.07;;
8046;SDS011;74083;42.516;23.358;2023-12-07T06:05:03;6.50;;;5.80;;
8046;SDS011;74083;42.516;23.358;2023-12-07T06:07:48;7.33;;;5.83;;
8046;SDS011;74083;42.516;23.358;2023-12-07T06:10:34;7.00;;;6.03;;
8046;SDS011;74083;42.516;23.358;2023-12-07T06:13:19;7.43;;;5.93;;
8046;SDS011;74083;42.516;23.358;2023-12-07T06:16:05;6.93;;;5.93;;
8046;SDS011;74083;42.516;23.358;2023-12-07T06:18:51;6.77;;;5.77;;
8046;SDS011;74083;42.516;23.358;2023-12-07T06:21:38;7.40;;;6.53;;
8046;SDS011;74083;42.516;23.358;2023-12-07T06:24:24;7.70;;;6.60;;
8046;SDS011;74083;42.516;23.358;2023-12-07T06:27:09;8.30;;;6.50;;
8046;SDS011;74083;42.516;23.358;2023-12-07T06:29:54;6.90;;;6.20;;
8046;SDS011;74083;42.516;23.358;2023-12-07T06:32:40;7.10;;;6.33;;
8046;SDS011;74083;42.516;23.358;2023-12-07T06:35:25;7.20;;;5.87;;
8046;SDS011;74083;42.516;23.358;2023-12-07T06:38:12;7.17;;;6.30;;
8046;SDS011;74083;42.516;23.358;2023-12-07T06:40:58;8.63;;;6.70;;
8046;SDS011;74083;42.516;23.358;2023-12-07T06:43:44;6.77;;;6.07;;
8046;SDS011;74083;42.516;23.358;2023-12-07T06:46:30;7.30;;;6.50;;
8046;SDS011;74083;42.516;23.358;2023-12-07T06:49:15;7.50;;;6.33;;
8046;SDS011;74083;42.516;23.358;2023-12-07T06:52:01;8.10;;;6.60;;
8046;SDS011;74083;42.516;23.358;2023-12-07T06:54:48;7.57;;;6.40;;
8046;SDS011;74083;42.516;23.358;2023-12-07T06:57:33;7.77;;;6.53;;
8046;SDS011;74083;42.516;23.358;2023-12-07T07:00:19;8.77;;;6.93;;
8046;SDS011;74083;42.516;23.358;2023-12-07T07:14:30;7.17;;;6.47;;
8046;SDS011;74083;42.516;23.358;2023-12-07T07:17:16;7.83;;;6.90;;
8046;SDS011;74083;42.516;23.358;2023-12-07T07:20:02;7.40;;;6.60;;
8046;SDS011;74083;42.516;23.358;2023-12-07T07:22:47;7.17;;;6.40;;
8046;SDS011;74083;42.516;23.358;2023-12-07T07:25:33;7.90;;;6.67;;
8046;SDS011;74083;42.516;23.358;2023-12-07T07:28:19;7.87;;;6.67;;
8046;SDS011;74083;42.516;23.358;2023-12-07T07:31:06;7.80;;;6.60;;
8046;SDS011;74083;42.516;23.358;2023-12-07T07:33:52;8.13;;;6.97;;
8046;SDS011;74083;42.516;23.358;2023-12-07T07:36:38;8.33;;;6.67;;
8046;SDS011;74083;42.516;23.358;2023-12-07T07:39:23;8.77;;;7.07;;
8046;SDS011;74083;42.516;23.358;2023-12-07T07:42:09;7.87;;;6.30;;
8046;SDS011;74083;42.516;23.358;2023-12-07T07:44:54;7.80;;;6.80;;
8046;SDS011;74083;42.516;23.358;2023-12-07T07:47:41;7.77;;;6.83;;
8046;SDS011;74083;42.516;23.358;2023-12-07T07:50:27;8.70;;;7.10;;
8046;SDS011;74083;42.516;23.358;2023-12-07T07:53:13;8.60;;;6.50;;
8046;SDS011;74083;42.516;23.358;2023-12-07T07:55:58;7.93;;;6.60;;
8046;SDS011;74083;42.516;23.358;2023-12-07T07:58:44;7.43;;;6.60;;
8046;SDS011;74083;42.516;23.358;2023-12-07T08:01:29;7.73;;;6.47;;
8046;SDS011;74083;42.516;23.358;2023-12-07T08:04:16;8.03;;;6.47;;
8046;SDS011;74083;42.516;23.358;2023-12-07T08:07:02;7.50;;;6.60;;
8046;SDS011;74083;42.516;23.358;2023-12-07T08:09:48;7.97;;;6.73;;
8046;SDS011;74083;42.516;23.358;2023-12-07T08:12:34;8.07;;;6.90;;
8046;SDS011;74083;42.516;23.358;2023-12-07T08:15:19;7.87;;;6.33;;
8046;SDS011;74083;42.516;23.358;2023-12-07T08:18:05;8.10;;;6.30;;
8046;SDS011;74083;42.516;23.358;2023-12-07T08:20:52;7.13;;;6.10;;
8046;SDS011;74083;42.516;23.358;2023-12-07T08:23:38;7.87;;;6.40;;
8046;SDS011;74083;42.516;23.358;2023-12-07T08:26:24;7.77;;;6.43;;
8046;SDS011;74083;42.516;23.358;2023-12-07T08:29:11;7.00;;;6.17;;
8046;SDS011;74083;42.516;23.358;2023-12-07T08:31:57;7.83;;;6.57;;
8046;SDS011;74083;42.516;23.358;2023-12-07T08:34:43;6.90;;;5.77;;
8046;SDS011;74083;42.516;23.358;2023-12-07T08:37:29;7.43;;;6.27;;
8046;SDS011;74083;42.516;23.358;2023-12-07T08:40:15;7.30;;;6.27;;
8046;SDS011;74083;42.516;23.358;2023-12-07T08:43:01;7.37;;;6.40;;
8046;SDS011;74083;42.516;23.358;2023-12-07T08:45:49;7.07;;;5.60;;
8046;SDS011;74083;42.516;23.358;2023-12-07T08:48:35;7.27;;;6.40;;
8046;SDS011;74083;42.516;23.358;2023-12-07T08:51:21;7.57;;;6.17;;
8046;SDS011;74083;42.516;23.358;2023-12-07T08:54:09;6.40;;;5.70;;
8046;SDS011;74083;42.516;23.358;2023-12-07T08:56:55;8.27;;;6.20;;
8046;SDS011;74083;42.516;23.358;2023-12-07T08:59:41;7.20;;;6.10;;
8046;SDS011;74083;42.516;23.358;2023-12-07T09:02:27;7.50;;;6.13;;
8046;SDS011;74083;42.516;23.358;2023-12-07T09:05:12;8.20;;;6.23;;
8046;SDS011;74083;42.516;23.358;2023-12-07T09:07:58;6.60;;;5.93;;
8046;SDS011;74083;42.516;23.358;2023-12-07T09:10:45;7.97;;;6.60;;
8046;SDS011;74083;42.516;23.358;2023-12-07T09:13:33;8.50;;;6.30;;
8046;SDS011;74083;42.516;23.358;2023-12-07T09:16:18;6.47;;;5.60;;
8046;SDS011;74083;42.516;23.358;2023-12-07T09:19:05;8.10;;;6.50;;
8046;SDS011;74083;42.516;23.358;2023-12-07T09:21:50;7.37;;;6.23;;
8046;SDS011;74083;42.516;23.358;2023-12-07T09:24:36;6.73;;;5.93;;
8046;SDS011;74083;42.516;23.358;2023-12-07T09:27:22;6.43;;;5.83;;
8046;SDS011;74083;42.516;23.358;2023-12-07T09:30:08;7.23;;;6.13;;
8046;SDS011;74083;42.516;23.358;2023-12-07T09:32:56;6.80;;;6.03;;
8046;SDS011;74083;42.516;23.358;2023-12-07T09:35:42;7.10;;;5.80;;
8046;SDS011;74083;42.516;23.358;2023-12-07T09:38:27;7.50;;;5.60;;
8046;SDS011;74083;42.516;23.358;2023-12-07T09:41:12;7.77;;;6.23;;
8046;SDS011;74083;42.516;23.358;2023-12-07T09:44:00;6.47;;;5.33;;
8046;SDS011;74083;42.516;23.358;2023-12-07T09:46:47;6.60;;;5.90;;
8046;SDS011;74083;42.516;23.358;2023-12-07T09:49:33;6.53;;;5.53;;
8046;SDS011;74083;42.516;23.358;2023-12-07T09:52:19;6.13;;;5.50;;
8046;SDS011;74083;42.516;23.358;2023-12-07T09:55:07;6.10;;;5.50;;
8046;SDS011;74083;42.516;23.358;2023-12-07T09:57:53;6.17;;;5.57;;
8046;SDS011;74083;42.516;23.358;2023-12-07T10:00:42;6.40;;;5.73;;
8046;SDS011;74083;42.516;23.358;2023-12-07T10:03:27;6.20;;;5.60;;
8046;SDS011;74083;42.516;23.358;2023-12-07T10:06:14;6.30;;;5.43;;
8046;SDS011;74083;42.516;23.358;2023-12-07T10:09:02;6.03;;;5.33;;
8046;SDS011;74083;42.516;23.358;2023-12-07T10:11:50;5.73;;;5.00;;
8046;SDS011;74083;42.516;23.358;2023-12-07T10:14:47;6.33;;;5.30;;
8046;SDS011;74083;42.516;23.358;2023-12-07T10:17:47;5.53;;;4.77;;
8046;SDS011;74083;42.516;23.358;2023-12-07T10:20:34;5.47;;;4.97;;
8046;SDS011;74083;42.516;23.358;2023-12-07T10:23:19;5.37;;;4.87;;
8046;SDS011;74083;42.516;23.358;2023-12-07T10:26:06;5.23;;;4.73;;
8046;SDS011;74083;42.516;23.358;2023-12-07T10:28:51;5.77;;;5.00;;
8046;SDS011;74083;42.516;23.358;2023-12-07T10:31:38;5.03;;;4.63;;
8046;SDS011;74083;42.516;23.358;2023-12-07T10:34:25;5.03;;;4.53;;
8046;SDS011;74083;42.516;23.358;2023-12-07T10:37:11;4.80;;;4.30;;
8046;SDS011;74083;42.516;23.358;2023-12-07T10:39:56;4.37;;;3.97;;
8046;SDS011;74083;42.516;23.358;2023-12-07T10:42:42;4.20;;;3.80;;
8046;SDS011;74083;42.516;23.358;2023-12-07T10:45:33;4.47;;;4.07;;
8046;SDS011;74083;42.516;23.358;2023-12-07T10:48:20;4.00;;;3.70;;
8046;SDS011;74083;42.516;23.358;2023-12-07T10:51:08;4.20;;;3.80;;
8046;SDS011;74083;42.516;23.358;2023-12-07T10:53:57;3.80;;;3.50;;
8046;SDS011;74083;42.516;23.358;2023-12-07T10:56:48;4.57;;;4.13;;
8046;SDS011;74083;42.516;23.358;2023-12-07T10:59:34;4.27;;;3.87;;
8046;SDS011;74083;42.516;23.358;2023-12-07T11:02:23;3.80;;;3.50;;
8046;SDS011;74083;42.516;23.358;2023-12-07T11:05:10;4.13;;;3.73;;
8046;SDS011;74083;42.516;23.358;2023-12-07T11:07:59;4.50;;;3.40;;
8046;SDS011;74083;42.516;23.358;2023-12-07T11:10:52;3.57;;;3.27;;
8046;SDS011;74083;42.516;23.358;2023-12-07T11:13:45;3.77;;;3.47;;
8046;SDS011;74083;42.516;23.358;2023-12-07T11:16:40;3.90;;;3.50;;
8046;SDS011;74083;42.516;23.358;2023-12-07T11:19:46;3.77;;;3.40;;
8046;SDS011;74083;42.516;23.358;2023-12-07T11:22:31;3.73;;;3.43;;
8046;SDS011;74083;42.516;23.358;2023-12-07T11:25:19;3.70;;;3.40;;
8046;SDS011;74083;42.516;23.358;2023-12-07T11:28:05;4.20;;;3.80;;
8046;SDS011;74083;42.516;23.358;2023-12-07T11:30:53;4.17;;;3.70;;
8046;SDS011;74083;42.516;23.358;2023-12-07T11:33:40;3.73;;;3.43;;
8046;SDS011;74083;42.516;23.358;2023-12-07T11:36:27;3.63;;;3.30;;
8046;SDS011;74083;42.516;23.358;2023-12-07T11:39:15;3.60;;;3.30;;
8046;SDS011;74083;42.516;23.358;2023-12-07T11:42:07;3.20;;;2.90;;
8046;SDS011;74083;42.516;23.358;2023-12-07T11:44:55;3.13;;;2.83;;
8046;SDS011;74083;42.516;23.358;2023-12-07T11:47:41;2.97;;;2.77;;
8046;SDS011;74083;42.516;23.358;2023-12-07T11:50:32;3.00;;;2.70;;
8046;SDS011;74083;42.516;23.358;2023-12-07T11:53:19;2.90;;;2.60;;
8046;SDS011;74083;42.516;23.358;2023-12-07T11:56:06;2.77;;;2.57;;
8046;SDS011;74083;42.516;23.358;2023-12-07T11:58:55;2.77;;;2.57;;
8046;SDS011;74083;42.516;23.358;2023-12-07T12:01:46;2.67;;;2.47;;
8046;SDS011;74083;42.516;23.358;2023-12-07T12:04:32;2.40;;;2.20;;
8046;SDS011;74083;42.516;23.358;2023-12-07T12:07:17;2.60;;;2.40;;
8046;SDS011;74083;42.516;23.358;2023-12-07T12:10:03;2.37;;;2.20;;
8046;SDS011;74083;42.516;23.358;2023-12-07T12:12:49;2.70;;;2.50;;
8046;SDS011;74083;42.516;23.358;2023-12-07T12:15:36;2.27;;;2.17;;
8046;SDS011;74083;42.516;23.358;2023-12-07T12:18:22;2.10;;;2.00;;
8046;SDS011;74083;42.516;23.358;2023-12-07T12:21:10;2.30;;;2.20;;
8046;SDS011;74083;42.516;23.358;2023-12-07T12:23:56;2.50;;;2.30;;
8046;SDS011;74083;42.516;23.358;2023-12-07T12:26:43;1.80;;;1.70;;
8046;SDS011;74083;42.516;23.358;2023-12-07T12:29:31;2.17;;;2.07;;
8046;SDS011;74083;42.516;23.358;2023-12-07T12:32:19;2.10;;;2.00;;
8046;SDS011;74083;42.516;23.358;2023-12-07T12:35:06;2.10;;;2.00;;
8046;SDS011;74083;42.516;23.358;2023-12-07T12:37:53;2.10;;;2.00;;
8046;SDS011;74083;42.516;23.358;2023-12-07T12:40:39;2.20;;;1.90;;
8046;SDS011;74083;42.516;23.358;2023-12-07T12:43:26;2.00;;;1.90;;
8046;SDS011;74083;42.516;23.358;2023-12-07T12:46:11;2.00;;;1.90;;
8046;SDS011;74083;42.516;23.358;2023-12-07T12:49:00;1.80;;;1.70;;
8046;SDS011;74083;42.516;23.358;2023-12-07T12:51:46;1.90;;;1.80;;
8046;SDS011;74083;42.516;23.358;2023-12-07T12:54:32;2.10;;;2.00;;
8046;SDS011;74083;42.516;23.358;2023-12-07T12:57:19;2.13;;;2.00;;
8046;SDS011;74083;42.516;23.358;2023-12-07T13:00:05;2.37;;;2.17;;
8046;SDS011;74083;42.516;23.358;2023-12-07T13:02:51;2.10;;;2.00;;
8046;SDS011;74083;42.516;23.358;2023-12-07T13:05:38;2.10;;;2.00;;
8046;SDS011;74083;42.516;23.358;2023-12-07T13:08:24;2.10;;;1.83;;
8046;SDS011;74083;42.516;23.358;2023-12-07T13:11:12;2.17;;;2.00;;
8046;SDS011;74083;42.516;23.358;2023-12-07T13:14:00;2.10;;;2.00;;
8046;SDS011;74083;42.516;23.358;2023-12-07T13:16:50;2.00;;;1.90;;
8046;SDS011;74083;42.516;23.358;2023-12-07T13:19:35;1.97;;;1.87;;
8046;SDS011;74083;42.516;23.358;2023-12-07T13:22:22;2.07;;;1.97;;
8046;SDS011;74083;42.516;23.358;2023-12-07T13:25:08;2.00;;;1.90;;
8046;SDS011;74083;42.516;23.358;2023-12-07T13:27:55;2.00;;;1.90;;
8046;SDS011;74083;42.516;23.358;2023-12-07T13:30:41;2.00;;;1.90;;
8046;SDS011;74083;42.516;23.358;2023-12-07T13:33:27;2.13;;;2.03;;
8046;SDS011;74083;42.516;23.358;2023-12-07T13:36:13;2.10;;;2.00;;
8046;SDS011;74083;42.516;23.358;2023-12-07T13:39:03;2.20;;;2.10;;
8046;SDS011;74083;42.516;23.358;2023-12-07T13:41:48;2.20;;;2.10;;
8046;SDS011;74083;42.516;23.358;2023-12-07T13:44:35;2.30;;;2.10;;
8046;SDS011;74083;42.516;23.358;2023-12-07T13:47:21;2.37;;;2.17;;
8046;SDS011;74083;42.516;23.358;2023-12-07T13:50:10;2.40;;;2.20;;
8046;SDS011;74083;42.516;23.358;2023-12-07T13:52:56;2.30;;;2.10;;
8046;SDS011;74083;42.516;23.358;2023-12-07T13:55:44;2.37;;;2.10;;
8046;SDS011;74083;42.516;23.358;2023-12-07T13:58:30;2.03;;;1.93;;
8046;SDS011;74083;42.516;23.358;2023-12-07T14:01:16;1.90;;;1.80;;
8046;SDS011;74083;42.516;23.358;2023-12-07T14:04:01;2.10;;;2.00;;
8046;SDS011;74083;42.516;23.358;2023-12-07T14:06:47;2.00;;;1.90;;
8046;SDS011;74083;42.516;23.358;2023-12-07T14:09:33;2.00;;;1.90;;
8046;SDS011;74083;42.516;23.358;2023-12-07T14:12:20;2.30;;;2.10;;
8046;SDS011;74083;42.516;23.358;2023-12-07T14:15:07;2.20;;;2.10;;
8046;SDS011;74083;42.516;23.358;2023-12-07T14:17:53;2.17;;;2.07;;
8046;SDS011;74083;42.516;23.358;2023-12-07T14:20:40;2.20;;;2.00;;
8046;SDS011;74083;42.516;23.358;2023-12-07T14:23:26;2.00;;;1.90;;
8046;SDS011;74083;42.516;23.358;2023-12-07T14:26:11;2.23;;;2.03;;
8046;SDS011;74083;42.516;23.358;2023-12-07T14:28:59;2.37;;;2.20;;
8046;SDS011;74083;42.516;23.358;2023-12-07T14:31:45;2.40;;;2.20;;
8046;SDS011;74083;42.516;23.358;2023-12-07T14:34:30;2.03;;;1.93;;
8046;SDS011;74083;42.516;23.358;2023-12-07T14:37:16;2.20;;;2.07;;
8046;SDS011;74083;42.516;23.358;2023-12-07T14:40:01;2.03;;;1.93;;
8046;SDS011;74083;42.516;23.358;2023-12-07T14:42:49;2.00;;;1.90;;
8046;SDS011;74083;42.516;23.358;2023-12-07T14:45:35;2.10;;;2.00;;
8046;SDS011;74083;42.516;23.358;2023-12-07T14:48:21;2.03;;;1.93;;
8046;SDS011;74083;42.516;23.358;2023-12-07T14:51:07;2.40;;;2.20;;
8046;SDS011;74083;42.516;23.358;2023-12-07T14:53:53;2.23;;;2.13;;
8046;SDS011;74083;42.516;23.358;2023-12-07T14:56:39;2.40;;;2.20;;
8046;SDS011;74083;42.516;23.358;2023-12-07T14:59:24;2.40;;;2.20;;
8046;SDS011;74083;42.516;23.358;2023-12-07T15:02:13;3.23;;;2.93;;
8046;SDS011;74083;42.516;23.358;2023-12-07T15:04:59;3.20;;;2.90;;
8046;SDS011;74083;42.516;23.358;2023-12-07T15:07:44;3.10;;;2.80;;
8046;SDS011;74083;42.516;23.358;2023-12-07T15:10:31;3.93;;;2.97;;
8046;SDS011;74083;42.516;23.358;2023-12-07T15:13:16;3.33;;;3.03;;
8046;SDS011;74083;42.516;23.358;2023-12-07T15:16:02;3.90;;;3.27;;
8046;SDS011;74083;42.516;23.358;2023-12-07T15:18:49;3.30;;;3.00;;
8046;SDS011;74083;42.516;23.358;2023-12-07T15:21:34;3.67;;;2.77;;
8046;SDS011;74083;42.516;23.358;2023-12-07T15:24:21;3.00;;;2.70;;
8046;SDS011;74083;42.516;23.358;2023-12-07T15:27:07;2.90;;;2.70;;
8046;SDS011;74083;42.516;23.358;2023-12-07T15:29:52;2.80;;;2.60;;
8046;SDS011;74083;42.516;23.358;2023-12-07T15:32:38;2.70;;;2.50;;
8046;SDS011;74083;42.516;23.358;2023-12-07T15:35:25;3.20;;;2.90;;
8046;SDS011;74083;42.516;23.358;2023-12-07T15:38:11;3.50;;;3.10;;
8046;SDS011;74083;42.516;23.358;2023-12-07T15:40:57;2.90;;;2.60;;
8046;SDS011;74083;42.516;23.358;2023-12-07T15:43:46;3.70;;;3.00;;
8046;SDS011;74083;42.516;23.358;2023-12-07T15:46:32;3.57;;;2.97;;
8046;SDS011;74083;42.516;23.358;2023-12-07T15:49:17;3.00;;;2.70;;
8046;SDS011;74083;42.516;23.358;2023-12-07T15:52:05;3.30;;;3.00;;
8046;SDS011;74083;42.516;23.358;2023-12-07T15:54:50;3.40;;;3.10;;
8046;SDS011;74083;42.516;23.358;2023-12-07T15:57:36;3.70;;;3.20;;
8046;SDS011;74083;42.516;23.358;2023-12-07T16:00:21;3.30;;;3.00;;
8046;SDS011;74083;42.516;23.358;2023-12-07T16:03:07;3.33;;;3.03;;
8046;SDS011;74083;42.516;23.358;2023-12-07T16:05:53;3.17;;;2.87;;
8046;SDS011;74083;42.516;23.358;2023-12-07T16:08:40;2.67;;;2.47;;
8046;SDS011;74083;42.516;23.358;2023-12-07T16:11:25;2.87;;;2.67;;
8046;SDS011;74083;42.516;23.358;2023-12-07T16:14:11;2.87;;;2.67;;
8046;SDS011;74083;42.516;23.358;2023-12-07T16:16:57;2.60;;;2.40;;
8046;SDS011;74083;42.516;23.358;2023-12-07T16:19:43;2.50;;;2.30;;
8046;SDS011;74083;42.516;23.358;2023-12-07T16:22:28;2.73;;;2.53;;
8046;SDS011;74083;42.516;23.358;2023-12-07T16:25:15;3.07;;;2.77;;
8046;SDS011;74083;42.516;23.358;2023-12-07T16:28:01;4.90;;;2.70;;
8046;SDS011;74083;42.516;23.358;2023-12-07T16:30:47;3.67;;;2.97;;
8046;SDS011;74083;42.516;23.358;2023-12-07T16:33:32;3.33;;;3.03;;
8046;SDS011;74083;42.516;23.358;2023-12-07T16:36:18;3.40;;;3.10;;
8046;SDS011;74083;42.516;23.358;2023-12-07T16:39:04;3.83;;;3.43;;
8046;SDS011;74083;42.516;23.358;2023-12-07T16:41:52;3.20;;;2.90;;
8046;SDS011;74083;42.516;23.358;2023-12-07T16:44:37;2.83;;;2.60;;
8046;SDS011;74083;42.516;23.358;2023-12-07T16:47:23;3.23;;;2.40;;
8046;SDS011;74083;42.516;23.358;2023-12-07T16:50:09;2.77;;;2.50;;
8046;SDS011;74083;42.516;23.358;2023-12-07T16:52:55;3.10;;;2.33;;
8046;SDS011;74083;42.516;23.358;2023-12-07T16:55:41;3.00;;;2.70;;